sensor_id;sensor_type;location;lat;lon;timestamp;P1;durP1;ratioP1;P2;durP2;ratioP2
47882;SDS011;37739;50.350;7.578;2024-03-02T00:00:27;3.37;;;2.60;;
47882;SDS011;37739;50.350;7.578;2024-03-02T00:02:52;2.80;;;2.33;;
47882;SDS011;37739;50.350;7.578;2024-03-02T00:05:20;3.30;;;2.60;;
47882;SDS011;37739;50.350;7.578;2024-03-02T00:08:08;2.43;;;2.23;;
47882;SDS011;37739;50.350;7.578;2024-03-02T00:10:38;3.00;;;2.60;;
47882;SDS011;37739;50.350;7.578;2024-03-02T00:13:08;2.57;;;2.37;;
47882;SDS011;37739;50.350;7.578;2024-03-02T00:18:16;2.73;;;2.43;;
47882;SDS011;37739;50.350;7.578;2024-03-02T00:20:44;3.50;;;2.63;;
47882;SDS011;37739;50.350;7.578;2024-03-02T00:23:15;2.97;;;2.63;;
47882;SDS011;37739;50.350;7.578;2024-03-02T00:25:43;3.63;;;2.53;;
47882;SDS011;37739;50.350;7.578;2024-03-02T00:33:26;2.37;;;2.10;;
47882;SDS011;37739;50.350;7.578;2024-03-02T00:35:53;4.10;;;3.07;;
47882;SDS011;37739;50.350;7.578;2024-03-02T00:38:18;2.60;;;2.40;;
47882;SDS011;37739;50.350;7.578;2024-03-02T00:40:44;2.60;;;2.30;;
47882;SDS011;37739;50.350;7.578;2024-03-02T00:43:12;2.60;;;2.40;;
47882;SDS011;37739;50.350;7.578;2024-03-02T00:45:50;3.63;;;2.87;;
47882;SDS011;37739;50.350;7.578;2024-03-02T00:48:18;2.53;;;2.33;;
47882;SDS011;37739;50.350;7.578;2024-03-02T00:50:43;2.43;;;2.23;;
47882;SDS011;37739;50.350;7.578;2024-03-02T00:53:23;3.07;;;2.47;;
47882;SDS011;37739;50.350;7.578;2024-03-02T00:55:51;2.80;;;2.57;;
47882;SDS011;37739;50.350;7.578;2024-03-02T00:58:17;2.67;;;2.20;;
47882;SDS011;37739;50.350;7.578;2024-03-02T01:00:42;2.30;;;2.10;;
47882;SDS011;37739;50.350;7.578;2024-03-02T01:03:07;2.20;;;2.00;;
47882;SDS011;37739;50.350;7.578;2024-03-02T01:05:35;2.60;;;2.20;;
47882;SDS011;37739;50.350;7.578;2024-03-02T01:08:01;2.17;;;1.90;;
47882;SDS011;37739;50.350;7.578;2024-03-02T01:10:26;2.70;;;1.87;;
47882;SDS011;37739;50.350;7.578;2024-03-02T01:12:52;2.57;;;2.33;;
47882;SDS011;37739;50.350;7.578;2024-03-02T01:15:17;2.27;;;1.97;;
47882;SDS011;37739;50.350;7.578;2024-03-02T01:17:43;2.00;;;1.70;;
47882;SDS011;37739;50.350;7.578;2024-03-02T01:20:08;2.17;;;1.83;;
47882;SDS011;37739;50.350;7.578;2024-03-02T01:22:37;2.37;;;1.63;;
47882;SDS011;37739;50.350;7.578;2024-03-02T01:25:02;2.87;;;2.10;;
47882;SDS011;37739;50.350;7.578;2024-03-02T01:27:28;2.20;;;2.00;;
47882;SDS011;37739;50.350;7.578;2024-03-02T01:29:56;4.17;;;2.03;;
47882;SDS011;37739;50.350;7.578;2024-03-02T01:32:27;2.10;;;1.90;;
47882;SDS011;37739;50.350;7.578;2024-03-02T01:34:52;3.03;;;2.00;;
47882;SDS011;37739;50.350;7.578;2024-03-02T01:37:17;2.40;;;2.20;;
47882;SDS011;37739;50.350;7.578;2024-03-02T01:39:47;2.30;;;2.10;;
47882;SDS011;37739;50.350;7.578;2024-03-02T01:42:13;2.53;;;2.33;;
47882;SDS011;37739;50.350;7.578;2024-03-02T01:44:41;2.90;;;2.03;;
47882;SDS011;37739;50.350;7.578;2024-03-02T01:47:06;2.67;;;2.40;;
47882;SDS011;37739;50.350;7.578;2024-03-02T01:49:32;2.30;;;2.10;;
47882;SDS011;37739;50.350;7.578;2024-03-02T01:52:00;2.30;;;1.70;;
47882;SDS011;37739;50.350;7.578;2024-03-02T01:54:27;3.87;;;3.03;;
47882;SDS011;37739;50.350;7.578;2024-03-02T01:56:52;2.67;;;2.27;;
47882;SDS011;37739;50.350;7.578;2024-03-02T01:59:18;2.50;;;2.30;;
47882;SDS011;37739;50.350;7.578;2024-03-02T02:01:45;3.47;;;2.10;;
47882;SDS011;37739;50.350;7.578;2024-03-02T02:04:11;2.40;;;2.17;;
47882;SDS011;37739;50.350;7.578;2024-03-02T02:06:36;2.97;;;2.57;;
47882;SDS011;37739;50.350;7.578;2024-03-02T02:09:04;3.10;;;2.80;;
47882;SDS011;37739;50.350;7.578;2024-03-02T02:11:31;3.90;;;2.67;;
47882;SDS011;37739;50.350;7.578;2024-03-02T02:14:01;3.73;;;2.90;;
47882;SDS011;37739;50.350;7.578;2024-03-02T02:16:26;3.67;;;3.30;;
47882;SDS011;37739;50.350;7.578;2024-03-02T02:18:52;3.20;;;2.90;;
47882;SDS011;37739;50.350;7.578;2024-03-02T02:21:22;3.20;;;2.90;;
47882;SDS011;37739;50.350;7.578;2024-03-02T02:23:48;3.23;;;2.93;;
47882;SDS011;37739;50.350;7.578;2024-03-02T02:26:15;4.20;;;3.37;;
47882;SDS011;37739;50.350;7.578;2024-03-02T02:28:41;4.50;;;4.10;;
47882;SDS011;37739;50.350;7.578;2024-03-02T02:31:12;3.87;;;3.43;;
47882;SDS011;37739;50.350;7.578;2024-03-02T02:33:41;4.07;;;3.67;;
47882;SDS011;37739;50.350;7.578;2024-03-02T02:36:06;3.30;;;3.00;;
47882;SDS011;37739;50.350;7.578;2024-03-02T02:38:32;3.40;;;3.10;;
47882;SDS011;37739;50.350;7.578;2024-03-02T02:41:00;3.77;;;3.40;;
47882;SDS011;37739;50.350;7.578;2024-03-02T02:43:25;4.60;;;4.03;;
47882;SDS011;37739;50.350;7.578;2024-03-02T02:45:53;4.40;;;4.00;;
47882;SDS011;37739;50.350;7.578;2024-03-02T02:48:18;4.10;;;3.70;;
47882;SDS011;37739;50.350;7.578;2024-03-02T02:50:43;4.80;;;3.37;;
47882;SDS011;37739;50.350;7.578;2024-03-02T02:53:09;5.27;;;3.43;;
47882;SDS011;37739;50.350;7.578;2024-03-02T02:55:34;4.77;;;3.60;;
47882;SDS011;37739;50.350;7.578;2024-03-02T02:58:05;5.00;;;4.50;;
47882;SDS011;37739;50.350;7.578;2024-03-02T03:00:31;5.40;;;4.73;;
47882;SDS011;37739;50.350;7.578;2024-03-02T03:02:57;5.63;;;5.13;;
47882;SDS011;37739;50.350;7.578;2024-03-02T03:05:25;5.70;;;5.20;;
47882;SDS011;37739;50.350;7.578;2024-03-02T03:07:52;5.83;;;4.80;;
47882;SDS011;37739;50.350;7.578;2024-03-02T03:10:18;5.03;;;4.63;;
47882;SDS011;37739;50.350;7.578;2024-03-02T03:12:43;5.40;;;4.90;;
47882;SDS011;37739;50.350;7.578;2024-03-02T03:15:11;5.73;;;5.10;;
47882;SDS011;37739;50.350;7.578;2024-03-02T03:17:41;6.93;;;6.20;;
47882;SDS011;37739;50.350;7.578;2024-03-02T03:20:07;5.63;;;5.07;;
47882;SDS011;37739;50.350;7.578;2024-03-02T03:22:36;6.83;;;6.23;;
47882;SDS011;37739;50.350;7.578;2024-03-02T03:25:02;7.87;;;7.07;;
47882;SDS011;37739;50.350;7.578;2024-03-02T03:27:32;7.80;;;7.10;;
47882;SDS011;37739;50.350;7.578;2024-03-02T03:29:57;7.53;;;6.63;;
47882;SDS011;37739;50.350;7.578;2024-03-02T03:32:22;7.67;;;6.97;;
47882;SDS011;37739;50.350;7.578;2024-03-02T03:34:48;7.53;;;6.83;;
47882;SDS011;37739;50.350;7.578;2024-03-02T03:37:13;7.27;;;6.57;;
47882;SDS011;37739;50.350;7.578;2024-03-02T03:39:39;8.43;;;7.33;;
47882;SDS011;37739;50.350;7.578;2024-03-02T03:42:04;9.93;;;8.93;;
47882;SDS011;37739;50.350;7.578;2024-03-02T03:44:32;8.40;;;7.60;;
47882;SDS011;37739;50.350;7.578;2024-03-02T03:47:00;8.70;;;7.80;;
47882;SDS011;37739;50.350;7.578;2024-03-02T03:49:30;10.00;;;8.57;;
47882;SDS011;37739;50.350;7.578;2024-03-02T03:51:55;9.97;;;7.00;;
47882;SDS011;37739;50.350;7.578;2024-03-02T03:54:23;9.53;;;8.63;;
47882;SDS011;37739;50.350;7.578;2024-03-02T03:56:50;9.20;;;8.40;;
47882;SDS011;37739;50.350;7.578;2024-03-02T03:59:18;9.87;;;8.93;;
47882;SDS011;37739;50.350;7.578;2024-03-02T04:01:45;9.73;;;8.77;;
47882;SDS011;37739;50.350;7.578;2024-03-02T04:04:13;9.97;;;9.00;;
47882;SDS011;37739;50.350;7.578;2024-03-02T04:06:38;9.50;;;8.60;;
47882;SDS011;37739;50.350;7.578;2024-03-02T04:09:03;11.03;;;8.80;;
47882;SDS011;37739;50.350;7.578;2024-03-02T04:11:29;9.70;;;8.80;;
47882;SDS011;37739;50.350;7.578;2024-03-02T04:13:55;10.53;;;9.53;;
47882;SDS011;37739;50.350;7.578;2024-03-02T04:16:20;9.67;;;8.67;;
47882;SDS011;37739;50.350;7.578;2024-03-02T04:18:46;9.07;;;8.17;;
47882;SDS011;37739;50.350;7.578;2024-03-02T04:21:11;10.63;;;9.53;;
47882;SDS011;37739;50.350;7.578;2024-03-02T04:23:37;8.90;;;8.00;;
47882;SDS011;37739;50.350;7.578;2024-03-02T04:26:02;10.03;;;9.13;;
47882;SDS011;37739;50.350;7.578;2024-03-02T04:28:28;10.43;;;9.07;;
47882;SDS011;37739;50.350;7.578;2024-03-02T04:30:53;9.00;;;8.10;;
47882;SDS011;37739;50.350;7.578;2024-03-02T04:33:18;12.17;;;9.57;;
47882;SDS011;37739;50.350;7.578;2024-03-02T04:35:43;10.17;;;9.10;;
47882;SDS011;37739;50.350;7.578;2024-03-02T04:38:11;9.30;;;8.27;;
47882;SDS011;37739;50.350;7.578;2024-03-02T04:40:37;10.13;;;9.13;;
47882;SDS011;37739;50.350;7.578;2024-03-02T04:43:02;9.30;;;8.40;;
47882;SDS011;37739;50.350;7.578;2024-03-02T04:45:30;9.43;;;8.50;;
47882;SDS011;37739;50.350;7.578;2024-03-02T04:47:58;10.70;;;9.60;;
47882;SDS011;37739;50.350;7.578;2024-03-02T04:50:27;9.00;;;8.10;;
47882;SDS011;37739;50.350;7.578;2024-03-02T04:52:55;9.80;;;8.90;;
47882;SDS011;37739;50.350;7.578;2024-03-02T04:55:20;9.77;;;8.87;;
47882;SDS011;37739;50.350;7.578;2024-03-02T04:58:00;9.70;;;8.20;;
47882;SDS011;37739;50.350;7.578;2024-03-02T05:00:26;9.40;;;8.50;;
47882;SDS011;37739;50.350;7.578;2024-03-02T05:02:51;10.17;;;8.73;;
47882;SDS011;37739;50.350;7.578;2024-03-02T05:05:18;9.60;;;8.57;;
47882;SDS011;37739;50.350;7.578;2024-03-02T05:07:46;9.20;;;8.30;;
47882;SDS011;37739;50.350;7.578;2024-03-02T05:10:11;8.40;;;7.60;;
47882;SDS011;37739;50.350;7.578;2024-03-02T05:12:37;8.80;;;8.00;;
47882;SDS011;37739;50.350;7.578;2024-03-02T05:15:12;9.67;;;8.67;;
47882;SDS011;37739;50.350;7.578;2024-03-02T05:17:41;9.03;;;8.13;;
47882;SDS011;37739;50.350;7.578;2024-03-02T05:20:10;9.43;;;7.70;;
47882;SDS011;37739;50.350;7.578;2024-03-02T05:22:36;8.50;;;7.70;;
47882;SDS011;37739;50.350;7.578;2024-03-02T05:25:02;8.73;;;7.83;;
47882;SDS011;37739;50.350;7.578;2024-03-02T05:27:30;9.70;;;8.40;;
47882;SDS011;37739;50.350;7.578;2024-03-02T05:29:59;9.27;;;8.33;;
47882;SDS011;37739;50.350;7.578;2024-03-02T05:32:24;9.20;;;8.23;;
47882;SDS011;37739;50.350;7.578;2024-03-02T05:34:53;9.00;;;8.10;;
47882;SDS011;37739;50.350;7.578;2024-03-02T05:37:20;8.47;;;7.67;;
47882;SDS011;37739;50.350;7.578;2024-03-02T05:39:46;9.23;;;8.30;;
47882;SDS011;37739;50.350;7.578;2024-03-02T05:42:11;9.60;;;8.03;;
47882;SDS011;37739;50.350;7.578;2024-03-02T05:44:36;9.60;;;8.60;;
47882;SDS011;37739;50.350;7.578;2024-03-02T05:47:04;8.40;;;7.60;;
47882;SDS011;37739;50.350;7.578;2024-03-02T05:49:32;10.23;;;8.40;;
47882;SDS011;37739;50.350;7.578;2024-03-02T05:52:02;9.50;;;8.57;;
47882;SDS011;37739;50.350;7.578;2024-03-02T05:54:28;8.27;;;7.47;;
47882;SDS011;37739;50.350;7.578;2024-03-02T05:56:53;9.03;;;8.07;;
47882;SDS011;37739;50.350;7.578;2024-03-02T05:59:18;10.10;;;8.53;;
47882;SDS011;37739;50.350;7.578;2024-03-02T06:01:45;9.40;;;8.60;;
47882;SDS011;37739;50.350;7.578;2024-03-02T06:04:20;10.50;;;9.40;;
47882;SDS011;37739;50.350;7.578;2024-03-02T06:06:47;10.53;;;9.40;;
47882;SDS011;37739;50.350;7.578;2024-03-02T06:09:14;9.30;;;8.10;;
47882;SDS011;37739;50.350;7.578;2024-03-02T06:11:44;8.93;;;8.10;;
47882;SDS011;37739;50.350;7.578;2024-03-02T06:14:12;9.50;;;8.60;;
47882;SDS011;37739;50.350;7.578;2024-03-02T06:16:37;8.27;;;7.47;;
47882;SDS011;37739;50.350;7.578;2024-03-02T06:19:03;8.90;;;8.00;;
47882;SDS011;37739;50.350;7.578;2024-03-02T06:21:31;9.37;;;8.37;;
47882;SDS011;37739;50.350;7.578;2024-03-02T06:23:56;9.23;;;8.33;;
47882;SDS011;37739;50.350;7.578;2024-03-02T06:26:21;9.43;;;8.53;;
47882;SDS011;37739;50.350;7.578;2024-03-02T06:28:49;9.60;;;8.63;;
47882;SDS011;37739;50.350;7.578;2024-03-02T06:31:14;9.00;;;8.10;;
47882;SDS011;37739;50.350;7.578;2024-03-02T06:33:40;8.33;;;7.30;;
47882;SDS011;37739;50.350;7.578;2024-03-02T06:36:07;8.90;;;8.07;;
47882;SDS011;37739;50.350;7.578;2024-03-02T06:38:36;9.17;;;8.27;;
47882;SDS011;37739;50.350;7.578;2024-03-02T06:41:10;7.93;;;7.13;;
47882;SDS011;37739;50.350;7.578;2024-03-02T06:43:35;9.57;;;7.73;;
47882;SDS011;37739;50.350;7.578;2024-03-02T06:46:03;7.20;;;6.50;;
47882;SDS011;37739;50.350;7.578;2024-03-02T06:48:32;8.03;;;7.23;;
47882;SDS011;37739;50.350;7.578;2024-03-02T06:50:57;8.40;;;7.60;;
47882;SDS011;37739;50.350;7.578;2024-03-02T06:53:23;8.20;;;7.47;;
47882;SDS011;37739;50.350;7.578;2024-03-02T06:55:48;9.20;;;8.30;;
47882;SDS011;37739;50.350;7.578;2024-03-02T06:58:16;7.57;;;6.87;;
47882;SDS011;37739;50.350;7.578;2024-03-02T07:00:42;8.20;;;7.40;;
47882;SDS011;37739;50.350;7.578;2024-03-02T07:03:09;8.40;;;7.60;;
47882;SDS011;37739;50.350;7.578;2024-03-02T07:05:35;7.23;;;6.50;;
47882;SDS011;37739;50.350;7.578;2024-03-02T07:08:01;9.50;;;7.23;;
47882;SDS011;37739;50.350;7.578;2024-03-02T07:10:27;7.33;;;6.63;;
47882;SDS011;37739;50.350;7.578;2024-03-02T07:12:52;7.23;;;6.53;;
47882;SDS011;37739;50.350;7.578;2024-03-02T07:15:18;8.27;;;7.47;;
47882;SDS011;37739;50.350;7.578;2024-03-02T07:17:55;9.60;;;8.60;;
47882;SDS011;37739;50.350;7.578;2024-03-02T07:20:20;7.97;;;7.17;;
47882;SDS011;37739;50.350;7.578;2024-03-02T07:22:46;7.63;;;6.90;;
47882;SDS011;37739;50.350;7.578;2024-03-02T07:25:14;7.80;;;7.10;;
47882;SDS011;37739;50.350;7.578;2024-03-02T07:27:39;9.00;;;6.90;;
47882;SDS011;37739;50.350;7.578;2024-03-02T07:30:08;8.60;;;7.80;;
47882;SDS011;37739;50.350;7.578;2024-03-02T07:32:33;8.60;;;6.63;;
47882;SDS011;37739;50.350;7.578;2024-03-02T07:35:01;6.47;;;5.87;;
47882;SDS011;37739;50.350;7.578;2024-03-02T07:37:29;7.37;;;6.60;;
47882;SDS011;37739;50.350;7.578;2024-03-02T07:39:54;7.20;;;6.50;;
47882;SDS011;37739;50.350;7.578;2024-03-02T07:42:19;8.47;;;7.67;;
47882;SDS011;37739;50.350;7.578;2024-03-02T07:44:45;8.60;;;7.80;;
47882;SDS011;37739;50.350;7.578;2024-03-02T07:47:10;8.00;;;7.10;;
47882;SDS011;37739;50.350;7.578;2024-03-02T07:49:38;8.37;;;7.60;;
47882;SDS011;37739;50.350;7.578;2024-03-02T07:52:04;7.47;;;6.77;;
47882;SDS011;37739;50.350;7.578;2024-03-02T07:54:32;7.50;;;6.80;;
47882;SDS011;37739;50.350;7.578;2024-03-02T07:56:59;7.43;;;6.60;;
47882;SDS011;37739;50.350;7.578;2024-03-02T07:59:25;6.90;;;6.30;;
47882;SDS011;37739;50.350;7.578;2024-03-02T08:01:53;9.50;;;7.30;;
47882;SDS011;37739;50.350;7.578;2024-03-02T08:04:22;7.13;;;6.43;;
47882;SDS011;37739;50.350;7.578;2024-03-02T08:06:48;7.83;;;7.03;;
47882;SDS011;37739;50.350;7.578;2024-03-02T08:09:18;8.60;;;6.37;;
47882;SDS011;37739;50.350;7.578;2024-03-02T08:11:45;9.30;;;7.10;;
47882;SDS011;37739;50.350;7.578;2024-03-02T08:14:13;8.00;;;7.20;;
47882;SDS011;37739;50.350;7.578;2024-03-02T08:16:40;7.17;;;5.83;;
47882;SDS011;37739;50.350;7.578;2024-03-02T08:19:08;7.40;;;6.43;;
47882;SDS011;37739;50.350;7.578;2024-03-02T08:21:36;6.50;;;5.90;;
47882;SDS011;37739;50.350;7.578;2024-03-02T08:24:04;6.80;;;6.20;;
47882;SDS011;37739;50.350;7.578;2024-03-02T08:26:30;7.03;;;6.33;;
47882;SDS011;37739;50.350;7.578;2024-03-02T08:28:58;6.70;;;5.87;;
47882;SDS011;37739;50.350;7.578;2024-03-02T08:31:31;7.63;;;6.93;;
47882;SDS011;37739;50.350;7.578;2024-03-02T08:33:56;7.53;;;6.33;;
47882;SDS011;37739;50.350;7.578;2024-03-02T08:36:27;6.27;;;5.67;;
47882;SDS011;37739;50.350;7.578;2024-03-02T08:38:54;6.93;;;6.23;;
47882;SDS011;37739;50.350;7.578;2024-03-02T08:41:20;6.40;;;5.30;;
47882;SDS011;37739;50.350;7.578;2024-03-02T08:43:48;6.67;;;6.07;;
47882;SDS011;37739;50.350;7.578;2024-03-02T08:46:13;5.23;;;4.73;;
47882;SDS011;37739;50.350;7.578;2024-03-02T08:48:41;5.97;;;5.37;;
47882;SDS011;37739;50.350;7.578;2024-03-02T08:51:09;5.60;;;5.00;;
47882;SDS011;37739;50.350;7.578;2024-03-02T08:53:35;5.10;;;4.40;;
47882;SDS011;37739;50.350;7.578;2024-03-02T08:56:01;5.80;;;5.20;;
47882;SDS011;37739;50.350;7.578;2024-03-02T08:58:27;4.70;;;4.30;;
47882;SDS011;37739;50.350;7.578;2024-03-02T09:00:52;4.23;;;3.80;;
47882;SDS011;37739;50.350;7.578;2024-03-02T09:03:17;4.40;;;4.00;;
47882;SDS011;37739;50.350;7.578;2024-03-02T09:05:45;4.60;;;3.60;;
47882;SDS011;37739;50.350;7.578;2024-03-02T09:08:15;4.33;;;3.93;;
47882;SDS011;37739;50.350;7.578;2024-03-02T09:10:42;4.93;;;3.73;;
47882;SDS011;37739;50.350;7.578;2024-03-02T09:13:08;4.50;;;3.53;;
47882;SDS011;37739;50.350;7.578;2024-03-02T09:15:34;3.37;;;2.87;;
47882;SDS011;37739;50.350;7.578;2024-03-02T09:18:04;3.00;;;2.80;;
47882;SDS011;37739;50.350;7.578;2024-03-02T09:20:32;5.77;;;3.00;;
47882;SDS011;37739;50.350;7.578;2024-03-02T09:23:00;3.73;;;3.20;;
47882;SDS011;37739;50.350;7.578;2024-03-02T09:25:25;5.03;;;3.30;;
47882;SDS011;37739;50.350;7.578;2024-03-02T09:27:53;3.57;;;3.27;;
47882;SDS011;37739;50.350;7.578;2024-03-02T09:30:18;3.17;;;2.40;;
47882;SDS011;37739;50.350;7.578;2024-03-02T09:32:46;3.07;;;2.77;;
47882;SDS011;37739;50.350;7.578;2024-03-02T09:35:13;3.30;;;3.00;;
47882;SDS011;37739;50.350;7.578;2024-03-02T09:37:39;3.70;;;3.20;;
47882;SDS011;37739;50.350;7.578;2024-03-02T09:40:04;3.50;;;3.20;;
47882;SDS011;37739;50.350;7.578;2024-03-02T09:42:31;3.50;;;2.97;;
47882;SDS011;37739;50.350;7.578;2024-03-02T09:44:59;3.87;;;3.43;;
47882;SDS011;37739;50.350;7.578;2024-03-02T09:47:27;3.50;;;2.77;;
47882;SDS011;37739;50.350;7.578;2024-03-02T09:49:52;3.40;;;2.33;;
47882;SDS011;37739;50.350;7.578;2024-03-02T09:52:18;3.07;;;2.80;;
47882;SDS011;37739;50.350;7.578;2024-03-02T09:54:47;3.27;;;2.97;;
47882;SDS011;37739;50.350;7.578;2024-03-02T09:57:19;3.13;;;2.83;;
47882;SDS011;37739;50.350;7.578;2024-03-02T09:59:44;3.17;;;2.70;;
47882;SDS011;37739;50.350;7.578;2024-03-02T10:02:10;3.40;;;3.10;;
47882;SDS011;37739;50.350;7.578;2024-03-02T10:04:36;2.90;;;2.60;;
47882;SDS011;37739;50.350;7.578;2024-03-02T10:07:09;3.40;;;3.10;;
47882;SDS011;37739;50.350;7.578;2024-03-02T10:09:40;3.70;;;2.87;;
47882;SDS011;37739;50.350;7.578;2024-03-02T10:12:09;3.67;;;2.53;;
47882;SDS011;37739;50.350;7.578;2024-03-02T10:14:39;2.70;;;2.40;;
47882;SDS011;37739;50.350;7.578;2024-03-02T10:17:07;3.00;;;2.70;;
47882;SDS011;37739;50.350;7.578;2024-03-02T10:19:39;3.47;;;2.40;;
47882;SDS011;37739;50.350;7.578;2024-03-02T10:22:06;2.90;;;2.60;;
47882;SDS011;37739;50.350;7.578;2024-03-02T10:24:39;2.60;;;2.20;;
47882;SDS011;37739;50.350;7.578;2024-03-02T10:27:17;2.53;;;1.80;;
47882;SDS011;37739;50.350;7.578;2024-03-02T10:29:45;2.70;;;2.50;;
47882;SDS011;37739;50.350;7.578;2024-03-02T10:32:12;2.70;;;1.93;;
47882;SDS011;37739;50.350;7.578;2024-03-02T10:34:39;2.27;;;1.80;;
47882;SDS011;37739;50.350;7.578;2024-03-02T10:37:05;2.73;;;2.50;;
47882;SDS011;37739;50.350;7.578;2024-03-02T10:39:31;3.40;;;2.47;;
47882;SDS011;37739;50.350;7.578;2024-03-02T10:41:57;3.00;;;2.43;;
47882;SDS011;37739;50.350;7.578;2024-03-02T10:44:23;3.03;;;2.73;;
47882;SDS011;37739;50.350;7.578;2024-03-02T10:46:53;2.63;;;1.90;;
47882;SDS011;37739;50.350;7.578;2024-03-02T10:49:20;2.77;;;2.10;;
47882;SDS011;37739;50.350;7.578;2024-03-02T10:51:49;3.03;;;2.37;;
47882;SDS011;37739;50.350;7.578;2024-03-02T10:54:16;3.93;;;2.50;;
47882;SDS011;37739;50.350;7.578;2024-03-02T10:56:53;2.00;;;1.80;;
47882;SDS011;37739;50.350;7.578;2024-03-02T10:59:25;2.70;;;1.90;;
47882;SDS011;37739;50.350;7.578;2024-03-02T11:01:58;4.07;;;2.73;;
47882;SDS011;37739;50.350;7.578;2024-03-02T11:04:26;2.57;;;2.20;;
47882;SDS011;37739;50.350;7.578;2024-03-02T11:06:54;2.63;;;2.17;;
47882;SDS011;37739;50.350;7.578;2024-03-02T11:09:25;2.43;;;2.23;;
47882;SDS011;37739;50.350;7.578;2024-03-02T11:12:00;2.77;;;1.80;;
47882;SDS011;37739;50.350;7.578;2024-03-02T11:14:27;2.50;;;2.13;;
47882;SDS011;37739;50.350;7.578;2024-03-02T11:16:56;2.50;;;2.10;;
47882;SDS011;37739;50.350;7.578;2024-03-02T11:19:24;2.10;;;1.90;;
47882;SDS011;37739;50.350;7.578;2024-03-02T11:21:50;2.17;;;1.50;;
47882;SDS011;37739;50.350;7.578;2024-03-02T11:26:48;2.27;;;1.80;;
47882;SDS011;37739;50.350;7.578;2024-03-02T11:32:00;1.90;;;1.40;;
47882;SDS011;37739;50.350;7.578;2024-03-02T11:34:30;2.10;;;1.80;;
47882;SDS011;37739;50.350;7.578;2024-03-02T11:36:55;2.27;;;1.80;;
47882;SDS011;37739;50.350;7.578;2024-03-02T11:39:20;2.40;;;1.70;;
47882;SDS011;37739;50.350;7.578;2024-03-02T11:41:48;2.23;;;1.70;;
47882;SDS011;37739;50.350;7.578;2024-03-02T11:44:14;2.30;;;1.63;;
47882;SDS011;37739;50.350;7.578;2024-03-02T11:46:42;1.50;;;1.30;;
47882;SDS011;37739;50.350;7.578;2024-03-02T11:49:13;2.97;;;1.80;;
47882;SDS011;37739;50.350;7.578;2024-03-02T11:51:40;2.27;;;1.77;;
47882;SDS011;37739;50.350;7.578;2024-03-02T11:54:20;2.03;;;1.27;;
47882;SDS011;37739;50.350;7.578;2024-03-02T11:56:46;2.10;;;1.53;;
47882;SDS011;37739;50.350;7.578;2024-03-02T11:59:11;1.77;;;1.50;;
47882;SDS011;37739;50.350;7.578;2024-03-02T12:01:37;2.60;;;1.50;;
47882;SDS011;37739;50.350;7.578;2024-03-02T12:04:02;1.80;;;1.37;;
47882;SDS011;37739;50.350;7.578;2024-03-02T12:06:32;1.97;;;1.47;;
47882;SDS011;37739;50.350;7.578;2024-03-02T12:09:00;1.87;;;1.47;;
47882;SDS011;37739;50.350;7.578;2024-03-02T12:11:28;1.90;;;1.40;;
47882;SDS011;37739;50.350;7.578;2024-03-02T12:13:53;3.97;;;1.70;;
47882;SDS011;37739;50.350;7.578;2024-03-02T12:16:26;3.37;;;1.70;;
47882;SDS011;37739;50.350;7.578;2024-03-02T12:18:51;2.20;;;1.50;;
47882;SDS011;37739;50.350;7.578;2024-03-02T12:21:16;1.30;;;1.03;;
47882;SDS011;37739;50.350;7.578;2024-03-02T12:23:44;1.77;;;1.40;;
47882;SDS011;37739;50.350;7.578;2024-03-02T12:26:11;2.00;;;1.50;;
47882;SDS011;37739;50.350;7.578;2024-03-02T12:28:37;2.77;;;1.73;;
47882;SDS011;37739;50.350;7.578;2024-03-02T12:31:07;2.30;;;1.90;;
47882;SDS011;37739;50.350;7.578;2024-03-02T12:33:32;2.07;;;1.50;;
47882;SDS011;37739;50.350;7.578;2024-03-02T12:36:00;2.30;;;1.60;;
47882;SDS011;37739;50.350;7.578;2024-03-02T12:38:28;1.80;;;1.27;;
47882;SDS011;37739;50.350;7.578;2024-03-02T12:40:54;2.17;;;1.50;;
47882;SDS011;37739;50.350;7.578;2024-03-02T12:43:22;1.50;;;1.20;;
47882;SDS011;37739;50.350;7.578;2024-03-02T12:45:52;1.47;;;1.20;;
47882;SDS011;37739;50.350;7.578;2024-03-02T12:48:18;1.60;;;1.33;;
47882;SDS011;37739;50.350;7.578;2024-03-02T12:50:43;2.20;;;1.40;;
47882;SDS011;37739;50.350;7.578;2024-03-02T12:53:13;2.50;;;1.50;;
47882;SDS011;37739;50.350;7.578;2024-03-02T12:55:41;1.43;;;1.10;;
47882;SDS011;37739;50.350;7.578;2024-03-02T12:58:15;2.60;;;1.53;;
47882;SDS011;37739;50.350;7.578;2024-03-02T13:00:41;1.70;;;1.07;;
47882;SDS011;37739;50.350;7.578;2024-03-02T13:03:07;1.53;;;1.33;;
47882;SDS011;37739;50.350;7.578;2024-03-02T13:05:36;2.10;;;1.53;;
47882;SDS011;37739;50.350;7.578;2024-03-02T13:08:02;1.77;;;1.30;;
47882;SDS011;37739;50.350;7.578;2024-03-02T13:10:31;1.87;;;1.50;;
47882;SDS011;37739;50.350;7.578;2024-03-02T13:13:00;1.90;;;1.27;;
47882;SDS011;37739;50.350;7.578;2024-03-02T13:15:28;1.70;;;1.30;;
47882;SDS011;37739;50.350;7.578;2024-03-02T13:17:53;1.60;;;1.10;;
47882;SDS011;37739;50.350;7.578;2024-03-02T13:20:18;2.10;;;1.10;;
47882;SDS011;37739;50.350;7.578;2024-03-02T13:22:46;1.70;;;1.27;;
47882;SDS011;37739;50.350;7.578;2024-03-02T13:25:14;1.30;;;1.10;;
47882;SDS011;37739;50.350;7.578;2024-03-02T13:27:39;1.30;;;0.90;;
47882;SDS011;37739;50.350;7.578;2024-03-02T13:30:08;1.80;;;0.90;;
47882;SDS011;37739;50.350;7.578;2024-03-02T13:32:33;1.20;;;0.80;;
47882;SDS011;37739;50.350;7.578;2024-03-02T13:34:59;1.37;;;0.90;;
47882;SDS011;37739;50.350;7.578;2024-03-02T13:37:30;1.60;;;1.07;;
47882;SDS011;37739;50.350;7.578;2024-03-02T13:39:55;2.50;;;1.00;;
47882;SDS011;37739;50.350;7.578;2024-03-02T13:42:23;1.10;;;0.87;;
47882;SDS011;37739;50.350;7.578;2024-03-02T13:44:49;1.57;;;1.10;;
47882;SDS011;37739;50.350;7.578;2024-03-02T13:47:16;1.87;;;1.10;;
47882;SDS011;37739;50.350;7.578;2024-03-02T13:49:41;2.23;;;1.50;;
47882;SDS011;37739;50.350;7.578;2024-03-02T13:52:11;1.47;;;0.93;;
47882;SDS011;37739;50.350;7.578;2024-03-02T13:54:41;1.40;;;1.07;;
47882;SDS011;37739;50.350;7.578;2024-03-02T13:57:08;1.70;;;1.20;;
47882;SDS011;37739;50.350;7.578;2024-03-02T13:59:35;1.00;;;0.80;;
47882;SDS011;37739;50.350;7.578;2024-03-02T14:02:03;4.00;;;1.20;;
47882;SDS011;37739;50.350;7.578;2024-03-02T14:04:35;1.43;;;1.30;;
47882;SDS011;37739;50.350;7.578;2024-03-02T14:07:04;1.90;;;1.40;;
47882;SDS011;37739;50.350;7.578;2024-03-02T14:09:32;1.93;;;1.10;;
47882;SDS011;37739;50.350;7.578;2024-03-02T14:11:58;1.80;;;1.30;;
47882;SDS011;37739;50.350;7.578;2024-03-02T14:14:26;1.80;;;1.47;;
47882;SDS011;37739;50.350;7.578;2024-03-02T14:16:52;2.37;;;1.40;;
47882;SDS011;37739;50.350;7.578;2024-03-02T14:19:19;1.33;;;1.20;;
47882;SDS011;37739;50.350;7.578;2024-03-02T14:21:47;2.23;;;1.33;;
47882;SDS011;37739;50.350;7.578;2024-03-02T14:24:13;1.97;;;1.30;;
47882;SDS011;37739;50.350;7.578;2024-03-02T14:26:39;1.50;;;1.40;;
47882;SDS011;37739;50.350;7.578;2024-03-02T14:29:04;2.33;;;1.20;;
47882;SDS011;37739;50.350;7.578;2024-03-02T14:31:30;2.00;;;1.40;;
47882;SDS011;37739;50.350;7.578;2024-03-02T14:33:56;1.63;;;1.03;;
47882;SDS011;37739;50.350;7.578;2024-03-02T14:36:22;1.70;;;1.30;;
47882;SDS011;37739;50.350;7.578;2024-03-02T14:38:47;3.03;;;1.30;;
47882;SDS011;37739;50.350;7.578;2024-03-02T14:41:15;1.33;;;0.93;;
47882;SDS011;37739;50.350;7.578;2024-03-02T14:43:43;1.90;;;1.10;;
47882;SDS011;37739;50.350;7.578;2024-03-02T14:46:08;2.00;;;1.47;;
47882;SDS011;37739;50.350;7.578;2024-03-02T14:48:35;2.10;;;1.27;;
47882;SDS011;37739;50.350;7.578;2024-03-02T14:51:01;1.30;;;0.90;;
47882;SDS011;37739;50.350;7.578;2024-03-02T14:53:27;1.83;;;1.30;;
47882;SDS011;37739;50.350;7.578;2024-03-02T14:55:53;1.50;;;1.30;;
47882;SDS011;37739;50.350;7.578;2024-03-02T14:58:18;1.40;;;1.03;;
47882;SDS011;37739;50.350;7.578;2024-03-02T15:00:44;2.17;;;1.00;;